sensor_id;sensor_type;location;lat;lon;timestamp;pressure;altitude;pressure_sealevel;temperature;humidity
5952;BME280;3001;42.622;23.194;2023-02-14T00:01:35;92576.44;;;2.67;79.72
5952;BME280;3001;42.622;23.194;2023-02-14T00:04:02;92581.88;;;2.59;80.50
5952;BME280;3001;42.622;23.194;2023-02-14T00:06:30;92576.09;;;2.52;81.02
5952;BME280;3001;42.622;23.194;2023-02-14T00:08:59;92584.00;;;2.74;79.99
5952;BME280;3001;42.622;23.194;2023-02-14T00:11:26;92600.09;;;2.69;79.87
5952;BME280;3001;42.622;23.194;2023-02-14T00:13:54;92579.31;;;2.48;81.39
5952;BME280;3001;42.622;23.194;2023-02-14T00:16:39;92598.38;;;2.52;81.39
5952;BME280;3001;42.622;23.194;2023-02-14T00:19:07;92594.47;;;2.49;81.62
5952;BME280;3001;42.622;23.194;2023-02-14T00:21:35;92592.69;;;2.50;81.79
5952;BME280;3001;42.622;23.194;2023-02-14T00:24:04;92597.28;;;2.59;81.03
5952;BME280;3001;42.622;23.194;2023-02-14T00:26:31;92597.19;;;2.77;79.80
5952;BME280;3001;42.622;23.194;2023-02-14T00:28:58;92606.44;;;2.78;80.13
5952;BME280;3001;42.622;23.194;2023-02-14T00:31:25;92611.13;;;2.93;80.31
5952;BME280;3001;42.622;23.194;2023-02-14T00:33:53;92603.22;;;2.71;80.04
5952;BME280;3001;42.622;23.194;2023-02-14T00:36:19;92606.81;;;2.93;79.88
5952;BME280;3001;42.622;23.194;2023-02-14T00:38:46;92607.13;;;2.85;80.41
5952;BME280;3001;42.622;23.194;2023-02-14T00:41:13;92612.94;;;2.92;79.86
5952;BME280;3001;42.622;23.194;2023-02-14T00:43:44;92601.00;;;2.86;80.62
5952;BME280;3001;42.622;23.194;2023-02-14T00:46:11;92599.88;;;2.82;80.49
5952;BME280;3001;42.622;23.194;2023-02-14T00:48:38;92598.75;;;3.01;80.81
5952;BME280;3001;42.622;23.194;2023-02-14T00:51:06;92582.69;;;2.83;79.76
5952;BME280;3001;42.622;23.194;2023-02-14T00:53:33;92593.19;;;2.93;81.03
5952;BME280;3001;42.622;23.194;2023-02-14T00:56:00;92582.59;;;2.89;81.32
5952;BME280;3001;42.622;23.194;2023-02-14T00:58:27;92580.13;;;2.94;79.34
5952;BME280;3001;42.622;23.194;2023-02-14T01:00:53;92571.66;;;2.94;81.48
5952;BME280;3001;42.622;23.194;2023-02-14T01:03:20;92574.22;;;2.94;80.38
5952;BME280;3001;42.622;23.194;2023-02-14T01:05:47;92572.19;;;2.96;79.46
5952;BME280;3001;42.622;23.194;2023-02-14T01:08:16;92573.34;;;3.11;79.23
5952;BME280;3001;42.622;23.194;2023-02-14T01:10:42;92559.56;;;3.40;77.25
5952;BME280;3001;42.622;23.194;2023-02-14T01:13:09;92571.34;;;3.52;78.21
5952;BME280;3001;42.622;23.194;2023-02-14T01:15:38;92573.34;;;3.62;78.31
5952;BME280;3001;42.622;23.194;2023-02-14T01:18:05;92568.88;;;3.69;78.84
5952;BME280;3001;42.622;23.194;2023-02-14T01:20:32;92579.97;;;3.46;77.46
5952;BME280;3001;42.622;23.194;2023-02-14T01:22:59;92569.97;;;3.22;78.19
5952;BME280;3001;42.622;23.194;2023-02-14T01:25:28;92563.72;;;3.18;79.21
5952;BME280;3001;42.622;23.194;2023-02-14T01:27:55;92559.44;;;3.35;78.40
5952;BME280;3001;42.622;23.194;2023-02-14T01:30:23;92559.88;;;3.55;78.39
5952;BME280;3001;42.622;23.194;2023-02-14T01:32:50;92549.59;;;3.55;77.67
5952;BME280;3001;42.622;23.194;2023-02-14T01:35:17;92561.91;;;3.41;78.19
5952;BME280;3001;42.622;23.194;2023-02-14T01:37:43;92557.81;;;3.18;79.65
5952;BME280;3001;42.622;23.194;2023-02-14T01:40:12;92549.88;;;3.19;79.21
5952;BME280;3001;42.622;23.194;2023-02-14T01:42:40;92545.66;;;3.02;81.10
5952;BME280;3001;42.622;23.194;2023-02-14T01:45:13;92539.97;;;3.00;80.89
5952;BME280;3001;42.622;23.194;2023-02-14T01:47:43;92539.59;;;3.19;80.46
5952;BME280;3001;42.622;23.194;2023-02-14T01:50:15;92533.59;;;2.91;80.56
5952;BME280;3001;42.622;23.194;2023-02-14T01:52:46;92535.94;;;3.15;79.85
5952;BME280;3001;42.622;23.194;2023-02-14T01:55:17;92535.03;;;3.10;80.03
5952;BME280;3001;42.622;23.194;2023-02-14T01:57:49;92527.78;;;3.07;79.77
5952;BME280;3001;42.622;23.194;2023-02-14T02:00:18;92531.50;;;2.76;78.28
5952;BME280;3001;42.622;23.194;2023-02-14T02:03:03;92528.81;;;2.83;78.25
5952;BME280;3001;42.622;23.194;2023-02-14T02:05:30;92537.06;;;2.96;78.79
5952;BME280;3001;42.622;23.194;2023-02-14T02:07:59;92536.41;;;2.89;79.66
5952;BME280;3001;42.622;23.194;2023-02-14T02:10:26;92540.97;;;2.99;77.77
5952;BME280;3001;42.622;23.194;2023-02-14T02:12:54;92533.28;;;2.99;77.91
5952;BME280;3001;42.622;23.194;2023-02-14T02:15:24;92528.69;;;3.01;79.11
5952;BME280;3001;42.622;23.194;2023-02-14T02:17:56;92519.44;;;3.00;78.26
5952;BME280;3001;42.622;23.194;2023-02-14T02:26:55;92515.88;;;2.89;78.25
5952;BME280;3001;42.622;23.194;2023-02-14T02:32:57;92517.75;;;2.94;77.61
5952;BME280;3001;42.622;23.194;2023-02-14T02:35:44;92508.38;;;2.99;78.08
5952;BME280;3001;42.622;23.194;2023-02-14T02:38:27;92503.22;;;3.11;78.29
5952;BME280;3001;42.622;23.194;2023-02-14T02:41:02;92498.88;;;3.11;78.14
5952;BME280;3001;42.622;23.194;2023-02-14T02:43:40;92493.94;;;3.21;77.96
5952;BME280;3001;42.622;23.194;2023-02-14T02:46:12;92481.03;;;3.16;77.58
5952;BME280;3001;42.622;23.194;2023-02-14T02:49:06;92478.91;;;3.13;78.97
5952;BME280;3001;42.622;23.194;2023-02-14T02:51:38;92476.88;;;3.15;78.99
5952;BME280;3001;42.622;23.194;2023-02-14T02:54:30;92475.78;;;3.11;79.79
5952;BME280;3001;42.622;23.194;2023-02-14T02:57:00;92483.38;;;3.18;79.61
5952;BME280;3001;42.622;23.194;2023-02-14T02:59:31;92497.44;;;3.15;79.67
5952;BME280;3001;42.622;23.194;2023-02-14T03:02:04;92492.50;;;3.14;78.86
5952;BME280;3001;42.622;23.194;2023-02-14T03:04:32;92490.50;;;3.16;79.17
5952;BME280;3001;42.622;23.194;2023-02-14T03:07:19;92489.63;;;3.10;79.14
5952;BME280;3001;42.622;23.194;2023-02-14T03:10:03;92493.09;;;3.04;79.46
5952;BME280;3001;42.622;23.194;2023-02-14T03:12:49;92486.03;;;3.23;79.54
5952;BME280;3001;42.622;23.194;2023-02-14T03:15:29;92490.06;;;3.19;78.96
5952;BME280;3001;42.622;23.194;2023-02-14T03:18:05;92490.81;;;3.19;79.37
5952;BME280;3001;42.622;23.194;2023-02-14T03:20:43;92477.34;;;3.12;79.47
5952;BME280;3001;42.622;23.194;2023-02-14T03:23:17;92485.72;;;3.08;79.20
5952;BME280;3001;42.622;23.194;2023-02-14T03:25:56;92475.00;;;3.11;79.58
5952;BME280;3001;42.622;23.194;2023-02-14T03:28:32;92472.25;;;3.01;77.67
5952;BME280;3001;42.622;23.194;2023-02-14T03:31:05;92466.56;;;2.99;78.82
5952;BME280;3001;42.622;23.194;2023-02-14T03:33:42;92465.91;;;2.80;79.13
5952;BME280;3001;42.622;23.194;2023-02-14T03:36:14;92467.00;;;3.07;77.64
5952;BME280;3001;42.622;23.194;2023-02-14T03:38:47;92459.63;;;2.99;78.77
5952;BME280;3001;42.622;23.194;2023-02-14T03:41:19;92461.19;;;3.00;78.53
5952;BME280;3001;42.622;23.194;2023-02-14T03:43:50;92460.94;;;3.13;78.31
5952;BME280;3001;42.622;23.194;2023-02-14T03:46:21;92457.31;;;2.98;79.74
5952;BME280;3001;42.622;23.194;2023-02-14T03:48:51;92459.28;;;3.07;79.88
5952;BME280;3001;42.622;23.194;2023-02-14T03:51:21;92455.47;;;3.10;80.59
5952;BME280;3001;42.622;23.194;2023-02-14T03:53:53;92458.03;;;3.10;79.47
5952;BME280;3001;42.622;23.194;2023-02-14T03:56:28;92463.41;;;3.08;78.77
5952;BME280;3001;42.622;23.194;2023-02-14T03:59:01;92455.50;;;2.98;80.21
5952;BME280;3001;42.622;23.194;2023-02-14T04:01:34;92444.75;;;3.13;79.02
5952;BME280;3001;42.622;23.194;2023-02-14T04:04:03;92443.19;;;3.12;78.39
5952;BME280;3001;42.622;23.194;2023-02-14T04:06:31;92449.16;;;2.89;79.49
5952;BME280;3001;42.622;23.194;2023-02-14T04:08:59;92442.69;;;2.87;79.16
5952;BME280;3001;42.622;23.194;2023-02-14T04:11:26;92436.00;;;2.86;80.12
5952;BME280;3001;42.622;23.194;2023-02-14T04:13:53;92435.97;;;2.97;79.85
5952;BME280;3001;42.622;23.194;2023-02-14T04:16:20;92437.66;;;2.92;79.50
5952;BME280;3001;42.622;23.194;2023-02-14T04:18:46;92431.50;;;2.93;78.54
5952;BME280;3001;42.622;23.194;2023-02-14T04:21:31;92429.25;;;3.08;79.92
5952;BME280;3001;42.622;23.194;2023-02-14T04:23:58;92431.19;;;3.01;79.80
5952;BME280;3001;42.622;23.194;2023-02-14T04:26:26;92434.88;;;2.93;80.40
5952;BME280;3001;42.622;23.194;2023-02-14T04:28:52;92428.31;;;2.86;78.86
5952;BME280;3001;42.622;23.194;2023-02-14T04:31:19;92434.19;;;2.98;80.94
5952;BME280;3001;42.622;23.194;2023-02-14T04:33:46;92434.09;;;2.93;79.96
5952;BME280;3001;42.622;23.194;2023-02-14T04:36:14;92438.75;;;2.96;79.59
5952;BME280;3001;42.622;23.194;2023-02-14T04:38:41;92445.06;;;3.16;77.89
5952;BME280;3001;42.622;23.194;2023-02-14T04:41:08;92444.59;;;2.80;77.17
5952;BME280;3001;42.622;23.194;2023-02-14T04:43:36;92432.22;;;2.88;77.96
5952;BME280;3001;42.622;23.194;2023-02-14T04:46:03;92434.78;;;2.88;77.70
5952;BME280;3001;42.622;23.194;2023-02-14T04:48:29;92424.25;;;3.01;77.88
5952;BME280;3001;42.622;23.194;2023-02-14T04:50:56;92421.03;;;2.94;77.58
5952;BME280;3001;42.622;23.194;2023-02-14T04:53:23;92417.78;;;2.99;78.76
5952;BME280;3001;42.622;23.194;2023-02-14T04:55:49;92410.19;;;3.04;78.31
5952;BME280;3001;42.622;23.194;2023-02-14T04:58:16;92398.75;;;2.83;77.04
5952;BME280;3001;42.622;23.194;2023-02-14T05:00:44;92401.72;;;2.92;77.15
5952;BME280;3001;42.622;23.194;2023-02-14T05:03:11;92419.09;;;3.01;77.00
5952;BME280;3001;42.622;23.194;2023-02-14T05:05:38;92413.97;;;3.01;77.45
5952;BME280;3001;42.622;23.194;2023-02-14T05:08:04;92409.13;;;2.88;76.75
5952;BME280;3001;42.622;23.194;2023-02-14T05:10:31;92409.31;;;2.98;76.80
5952;BME280;3001;42.622;23.194;2023-02-14T05:12:59;92418.81;;;2.98;77.47
5952;BME280;3001;42.622;23.194;2023-02-14T05:15:26;92411.22;;;2.91;76.63
5952;BME280;3001;42.622;23.194;2023-02-14T05:17:54;92416.09;;;3.04;77.14
5952;BME280;3001;42.622;23.194;2023-02-14T05:20:25;92411.84;;;3.10;77.49
5952;BME280;3001;42.622;23.194;2023-02-14T05:22:52;92414.53;;;3.03;77.91
5952;BME280;3001;42.622;23.194;2023-02-14T05:25:19;92408.03;;;3.12;79.24
5952;BME280;3001;42.622;23.194;2023-02-14T05:27:46;92404.00;;;3.16;81.19
5952;BME280;3001;42.622;23.194;2023-02-14T05:30:13;92399.34;;;3.13;79.64
5952;BME280;3001;42.622;23.194;2023-02-14T05:32:40;92396.09;;;3.06;80.03
5952;BME280;3001;42.622;23.194;2023-02-14T05:35:08;92407.78;;;3.14;80.27
5952;BME280;3001;42.622;23.194;2023-02-14T05:37:35;92411.63;;;3.11;81.47
5952;BME280;3001;42.622;23.194;2023-02-14T05:40:02;92419.50;;;2.82;78.51
5952;BME280;3001;42.622;23.194;2023-02-14T05:42:28;92414.81;;;2.90;77.53
5952;BME280;3001;42.622;23.194;2023-02-14T05:44:55;92411.41;;;3.01;77.57
5952;BME280;3001;42.622;23.194;2023-02-14T05:47:22;92408.88;;;3.29;76.69
5952;BME280;3001;42.622;23.194;2023-02-14T05:49:48;92413.69;;;3.26;76.17
5952;BME280;3001;42.622;23.194;2023-02-14T05:52:16;92407.06;;;3.02;77.42
5952;BME280;3001;42.622;23.194;2023-02-14T05:54:43;92413.06;;;3.19;76.51
5952;BME280;3001;42.622;23.194;2023-02-14T05:57:10;92408.03;;;3.12;76.87
5952;BME280;3001;42.622;23.194;2023-02-14T05:59:36;92420.09;;;3.12;76.65
5952;BME280;3001;42.622;23.194;2023-02-14T06:02:03;92410.19;;;3.04;76.45
5952;BME280;3001;42.622;23.194;2023-02-14T06:04:29;92412.16;;;3.13;76.42
5952;BME280;3001;42.622;23.194;2023-02-14T06:06:56;92408.22;;;3.22;75.83
5952;BME280;3001;42.622;23.194;2023-02-14T06:09:24;92404.25;;;3.42;75.21
5952;BME280;3001;42.622;23.194;2023-02-14T06:11:51;92409.31;;;3.54;75.63
5952;BME280;3001;42.622;23.194;2023-02-14T06:14:18;92412.34;;;3.51;75.59
5952;BME280;3001;42.622;23.194;2023-02-14T06:16:45;92421.97;;;3.44;75.28
5952;BME280;3001;42.622;23.194;2023-02-14T06:19:11;92418.56;;;3.38;76.35
5952;BME280;3001;42.622;23.194;2023-02-14T06:21:38;92417.84;;;3.43;76.45
5952;BME280;3001;42.622;23.194;2023-02-14T06:24:05;92422.38;;;3.52;77.01
5952;BME280;3001;42.622;23.194;2023-02-14T06:26:33;92414.34;;;3.77;75.25
5952;BME280;3001;42.622;23.194;2023-02-14T06:29:00;92421.75;;;3.90;74.78
5952;BME280;3001;42.622;23.194;2023-02-14T06:31:27;92423.22;;;3.86;74.70
5952;BME280;3001;42.622;23.194;2023-02-14T06:33:54;92414.41;;;3.65;74.06
5952;BME280;3001;42.622;23.194;2023-02-14T06:36:21;92427.00;;;3.67;74.91
5952;BME280;3001;42.622;23.194;2023-02-14T06:38:49;92420.31;;;3.66;75.58
5952;BME280;3001;42.622;23.194;2023-02-14T06:41:15;92420.69;;;3.58;75.80
5952;BME280;3001;42.622;23.194;2023-02-14T06:43:45;92413.50;;;3.43;78.32
5952;BME280;3001;42.622;23.194;2023-02-14T06:46:13;92424.94;;;3.52;76.56
5952;BME280;3001;42.622;23.194;2023-02-14T06:48:40;92423.53;;;3.45;75.90
5952;BME280;3001;42.622;23.194;2023-02-14T06:51:07;92417.59;;;3.28;75.91
5952;BME280;3001;42.622;23.194;2023-02-14T06:53:33;92417.97;;;3.09;76.59
5952;BME280;3001;42.622;23.194;2023-02-14T06:56:00;92415.56;;;3.30;77.03
5952;BME280;3001;42.622;23.194;2023-02-14T06:58:27;92423.53;;;3.45;76.35
5952;BME280;3001;42.622;23.194;2023-02-14T07:00:55;92408.53;;;3.53;77.03
5952;BME280;3001;42.622;23.194;2023-02-14T07:03:22;92413.44;;;3.55;76.80
5952;BME280;3001;42.622;23.194;2023-02-14T07:05:48;92420.75;;;3.63;75.89
5952;BME280;3001;42.622;23.194;2023-02-14T07:08:15;92411.88;;;3.54;76.59
5952;BME280;3001;42.622;23.194;2023-02-14T07:10:42;92415.69;;;3.51;76.68
5952;BME280;3001;42.622;23.194;2023-02-14T07:13:09;92402.09;;;3.67;77.21
5952;BME280;3001;42.622;23.194;2023-02-14T07:15:35;92399.94;;;3.76;77.49
5952;BME280;3001;42.622;23.194;2023-02-14T07:18:04;92388.72;;;3.65;76.64
5952;BME280;3001;42.622;23.194;2023-02-14T07:20:33;92393.00;;;3.76;77.09
5952;BME280;3001;42.622;23.194;2023-02-14T07:22:59;92397.75;;;4.01;76.87
5952;BME280;3001;42.622;23.194;2023-02-14T07:25:26;92401.25;;;4.11;76.25
5952;BME280;3001;42.622;23.194;2023-02-14T07:27:53;92404.59;;;3.95;76.54
5952;BME280;3001;42.622;23.194;2023-02-14T07:30:20;92397.59;;;4.07;77.20
5952;BME280;3001;42.622;23.194;2023-02-14T07:32:47;92397.44;;;3.97;77.16
5952;BME280;3001;42.622;23.194;2023-02-14T07:35:15;92400.19;;;3.91;77.90
5952;BME280;3001;42.622;23.194;2023-02-14T07:37:41;92405.88;;;3.93;78.43
5952;BME280;3001;42.622;23.194;2023-02-14T07:40:09;92396.81;;;4.07;77.42
5952;BME280;3001;42.622;23.194;2023-02-14T07:42:36;92394.97;;;4.02;76.80
5952;BME280;3001;42.622;23.194;2023-02-14T07:45:03;92391.44;;;4.08;77.18
5952;BME280;3001;42.622;23.194;2023-02-14T07:47:31;92392.25;;;4.09;77.38
5952;BME280;3001;42.622;23.194;2023-02-14T07:49:58;92398.09;;;4.04;78.06
5952;BME280;3001;42.622;23.194;2023-02-14T07:52:26;92400.88;;;4.03;78.19
5952;BME280;3001;42.622;23.194;2023-02-14T07:54:53;92405.06;;;4.25;77.12
5952;BME280;3001;42.622;23.194;2023-02-14T07:57:19;92404.22;;;4.03;78.16
5952;BME280;3001;42.622;23.194;2023-02-14T07:59:46;92409.84;;;4.00;77.68
5952;BME280;3001;42.622;23.194;2023-02-14T08:02:13;92409.22;;;4.26;77.33
5952;BME280;3001;42.622;23.194;2023-02-14T08:04:39;92409.81;;;4.33;77.51
5952;BME280;3001;42.622;23.194;2023-02-14T08:07:06;92410.91;;;4.37;76.54
5952;BME280;3001;42.622;23.194;2023-02-14T08:09:34;92421.28;;;4.42;77.60
5952;BME280;3001;42.622;23.194;2023-02-14T08:12:01;92431.69;;;4.52;76.50
5952;BME280;3001;42.622;23.194;2023-02-14T08:14:45;92422.59;;;4.45;77.66
5952;BME280;3001;42.622;23.194;2023-02-14T08:17:11;92427.06;;;4.33;77.35
5952;BME280;3001;42.622;23.194;2023-02-14T08:19:38;92430.00;;;4.25;77.46
5952;BME280;3001;42.622;23.194;2023-02-14T08:22:05;92421.81;;;4.28;77.62
5952;BME280;3001;42.622;23.194;2023-02-14T08:24:34;92417.16;;;4.25;77.96
5952;BME280;3001;42.622;23.194;2023-02-14T08:27:00;92423.47;;;4.17;78.64
5952;BME280;3001;42.622;23.194;2023-02-14T08:29:27;92425.03;;;4.35;79.07
5952;BME280;3001;42.622;23.194;2023-02-14T08:31:54;92430.16;;;4.18;78.95
5952;BME280;3001;42.622;23.194;2023-02-14T08:34:24;92430.78;;;4.25;79.41
5952;BME280;3001;42.622;23.194;2023-02-14T08:36:51;92431.16;;;4.17;79.13
5952;BME280;3001;42.622;23.194;2023-02-14T08:39:17;92421.22;;;4.21;80.29
5952;BME280;3001;42.622;23.194;2023-02-14T08:41:45;92412.31;;;4.28;79.36
5952;BME280;3001;42.622;23.194;2023-02-14T08:44:12;92414.34;;;4.26;80.19
5952;BME280;3001;42.622;23.194;2023-02-14T08:46:40;92419.56;;;4.31;79.81
5952;BME280;3001;42.622;23.194;2023-02-14T08:49:08;92419.88;;;4.35;79.37
5952;BME280;3001;42.622;23.194;2023-02-14T08:51:35;92429.75;;;4.43;78.95
5952;BME280;3001;42.622;23.194;2023-02-14T08:54:02;92420.50;;;4.42;78.84
5952;BME280;3001;42.622;23.194;2023-02-14T08:56:29;92427.16;;;4.59;78.91
5952;BME280;3001;42.622;23.194;2023-02-14T08:58:57;92432.78;;;4.56;79.15
5952;BME280;3001;42.622;23.194;2023-02-14T09:01:23;92430.09;;;4.46;78.96
5952;BME280;3001;42.622;23.194;2023-02-14T09:03:50;92437.44;;;4.59;79.09
5952;BME280;3001;42.622;23.194;2023-02-14T09:06:17;92424.94;;;4.46;79.81
5952;BME280;3001;42.622;23.194;2023-02-14T09:08:43;92425.16;;;4.61;78.77
5952;BME280;3001;42.622;23.194;2023-02-14T09:11:13;92426.41;;;4.59;78.56
5952;BME280;3001;42.622;23.194;2023-02-14T09:13:41;92421.31;;;4.64;78.36
5952;BME280;3001;42.622;23.194;2023-02-14T09:16:11;92422.94;;;4.70;78.48
5952;BME280;3001;42.622;23.194;2023-02-14T09:18:38;92429.56;;;4.66;78.41
5952;BME280;3001;42.622;23.194;2023-02-14T09:21:07;92418.63;;;4.75;78.90
5952;BME280;3001;42.622;23.194;2023-02-14T09:23:34;92419.22;;;4.61;79.00
5952;BME280;3001;42.622;23.194;2023-02-14T09:26:02;92406.66;;;4.64;78.95
5952;BME280;3001;42.622;23.194;2023-02-14T09:28:29;92413.97;;;4.72;79.44
5952;BME280;3001;42.622;23.194;2023-02-14T09:30:56;92416.41;;;4.62;79.93
5952;BME280;3001;42.622;23.194;2023-02-14T09:33:26;92406.72;;;4.69;80.02
5952;BME280;3001;42.622;23.194;2023-02-14T09:35:53;92419.91;;;4.73;80.08
5952;BME280;3001;42.622;23.194;2023-02-14T09:38:37;92425.81;;;4.73;79.40
5952;BME280;3001;42.622;23.194;2023-02-14T09:41:05;92418.09;;;4.73;79.49
5952;BME280;3001;42.622;23.194;2023-02-14T09:43:37;92422.53;;;4.78;77.54
5952;BME280;3001;42.622;23.194;2023-02-14T09:46:08;92425.59;;;4.75;78.43
5952;BME280;3001;42.622;23.194;2023-02-14T09:48:40;92413.47;;;4.75;78.10
5952;BME280;3001;42.622;23.194;2023-02-14T09:51:12;92407.81;;;4.73;78.27
5952;BME280;3001;42.622;23.194;2023-02-14T09:53:43;92414.38;;;4.64;79.51
5952;BME280;3001;42.622;23.194;2023-02-14T09:56:15;92404.72;;;4.55;78.94
5952;BME280;3001;42.622;23.194;2023-02-14T09:58:49;92405.66;;;4.65;79.09
5952;BME280;3001;42.622;23.194;2023-02-14T10:01:21;92400.75;;;4.47;77.96
5952;BME280;3001;42.622;23.194;2023-02-14T10:04:16;92410.19;;;4.42;78.38
5952;BME280;3001;42.622;23.194;2023-02-14T10:06:52;92400.63;;;4.21;79.83
5952;BME280;3001;42.622;23.194;2023-02-14T10:09:30;92391.22;;;4.10;80.90
5952;BME280;3001;42.622;23.194;2023-02-14T10:12:02;92392.97;;;4.26;80.50
5952;BME280;3001;42.622;23.194;2023-02-14T10:14:33;92384.09;;;4.33;80.70
5952;BME280;3001;42.622;23.194;2023-02-14T10:17:08;92384.25;;;4.27;80.22
5952;BME280;3001;42.622;23.194;2023-02-14T10:19:40;92376.00;;;4.25;80.86
5952;BME280;3001;42.622;23.194;2023-02-14T10:22:12;92376.47;;;4.22;80.53
5952;BME280;3001;42.622;23.194;2023-02-14T10:24:43;92386.81;;;4.27;80.85
5952;BME280;3001;42.622;23.194;2023-02-14T10:27:17;92385.59;;;4.29;80.79
5952;BME280;3001;42.622;23.194;2023-02-14T10:29:49;92385.75;;;4.39;80.41
5952;BME280;3001;42.622;23.194;2023-02-14T10:32:22;92363.78;;;4.32;80.26
5952;BME280;3001;42.622;23.194;2023-02-14T10:34:54;92391.34;;;4.53;79.03
5952;BME280;3001;42.622;23.194;2023-02-14T10:37:33;92394.91;;;4.52;80.22
5952;BME280;3001;42.622;23.194;2023-02-14T10:40:30;92394.44;;;4.55;78.86
5952;BME280;3001;42.622;23.194;2023-02-14T10:43:08;92372.41;;;4.42;78.43
5952;BME280;3001;42.622;23.194;2023-02-14T10:45:44;92394.75;;;4.42;76.72
5952;BME280;3001;42.622;23.194;2023-02-14T10:48:22;92403.66;;;4.34;77.58
5952;BME280;3001;42.622;23.194;2023-02-14T10:50:58;92393.16;;;4.36;77.31
5952;BME280;3001;42.622;23.194;2023-02-14T10:53:36;92390.09;;;4.39;76.45
5952;BME280;3001;42.622;23.194;2023-02-14T10:56:07;92386.97;;;4.37;76.29
5952;BME280;3001;42.622;23.194;2023-02-14T10:58:39;92395.34;;;4.27;77.44
5952;BME280;3001;42.622;23.194;2023-02-14T11:01:09;92386.72;;;4.38;77.43
5952;BME280;3001;42.622;23.194;2023-02-14T11:03:40;92383.78;;;4.46;76.86
5952;BME280;3001;42.622;23.194;2023-02-14T11:06:09;92375.91;;;4.53;76.94
5952;BME280;3001;42.622;23.194;2023-02-14T11:08:37;92376.81;;;4.63;76.73
5952;BME280;3001;42.622;23.194;2023-02-14T11:11:12;92376.13;;;4.51;74.84
5952;BME280;3001;42.622;23.194;2023-02-14T11:13:41;92377.84;;;4.46;75.73
5952;BME280;3001;42.622;23.194;2023-02-14T11:16:11;92366.09;;;4.33;76.82
5952;BME280;3001;42.622;23.194;2023-02-14T11:18:39;92378.25;;;4.38;77.02
5952;BME280;3001;42.622;23.194;2023-02-14T11:21:09;92360.47;;;4.36;76.99
5952;BME280;3001;42.622;23.194;2023-02-14T11:23:39;92363.97;;;4.47;76.98
5952;BME280;3001;42.622;23.194;2023-02-14T11:26:15;92373.53;;;4.51;76.56
5952;BME280;3001;42.622;23.194;2023-02-14T11:28:48;92374.34;;;4.52;74.99
5952;BME280;3001;42.622;23.194;2023-02-14T11:31:24;92372.13;;;4.60;74.84
5952;BME280;3001;42.622;23.194;2023-02-14T11:33:51;92362.00;;;4.54;76.61
5952;BME280;3001;42.622;23.194;2023-02-14T11:36:20;92356.56;;;4.50;75.25
5952;BME280;3001;42.622;23.194;2023-02-14T11:38:54;92363.78;;;4.53;75.38
5952;BME280;3001;42.622;23.194;2023-02-14T11:41:21;92362.13;;;4.64;74.86
5952;BME280;3001;42.622;23.194;2023-02-14T11:43:48;92358.25;;;4.61;74.64
5952;BME280;3001;42.622;23.194;2023-02-14T11:46:25;92366.25;;;4.65;74.55
5952;BME280;3001;42.622;23.194;2023-02-14T11:48:57;92369.38;;;4.67;74.01
5952;BME280;3001;42.622;23.194;2023-02-14T11:51:28;92368.78;;;4.60;74.27
5952;BME280;3001;42.622;23.194;2023-02-14T11:53:57;92372.31;;;4.54;75.18
5952;BME280;3001;42.622;23.194;2023-02-14T11:56:44;92354.34;;;4.59;75.19
5952;BME280;3001;42.622;23.194;2023-02-14T11:59:29;92354.84;;;4.56;73.94
5952;BME280;3001;42.622;23.194;2023-02-14T12:01:59;92348.13;;;4.55;73.18
5952;BME280;3001;42.622;23.194;2023-02-14T12:04:31;92358.53;;;4.65;73.18
5952;BME280;3001;42.622;23.194;2023-02-14T12:07:28;92345.78;;;4.53;72.65
5952;BME280;3001;42.622;23.194;2023-02-14T12:12:59;92345.94;;;4.47;73.79
5952;BME280;3001;42.622;23.194;2023-02-14T12:15:36;92328.94;;;4.62;74.63
5952;BME280;3001;42.622;23.194;2023-02-14T12:21:02;92328.25;;;4.50;74.30
5952;BME280;3001;42.622;23.194;2023-02-14T12:23:39;92327.94;;;4.47;74.30
5952;BME280;3001;42.622;23.194;2023-02-14T12:26:13;92327.50;;;4.50;73.57
5952;BME280;3001;42.622;23.194;2023-02-14T12:28:47;92320.88;;;4.37;74.16
5952;BME280;3001;42.622;23.194;2023-02-14T12:31:15;92318.78;;;4.34;74.79
5952;BME280;3001;42.622;23.194;2023-02-14T12:33:42;92319.03;;;4.33;75.79
5952;BME280;3001;42.622;23.194;2023-02-14T12:36:16;92311.97;;;4.45;74.42
5952;BME280;3001;42.622;23.194;2023-02-14T12:38:57;92326.69;;;4.49;73.89
5952;BME280;3001;42.622;23.194;2023-02-14T12:41:36;92305.28;;;4.44;74.88
5952;BME280;3001;42.622;23.194;2023-02-14T12:44:12;92300.94;;;4.44;75.86
5952;BME280;3001;42.622;23.194;2023-02-14T12:47:00;92306.25;;;4.38;75.63
5952;BME280;3001;42.622;23.194;2023-02-14T12:52:50;92304.84;;;4.30;75.37
5952;BME280;3001;42.622;23.194;2023-02-14T12:55:37;92297.13;;;4.30;76.35
5952;BME280;3001;42.622;23.194;2023-02-14T12:58:17;92291.09;;;4.20;76.98
5952;BME280;3001;42.622;23.194;2023-02-14T13:00:54;92290.38;;;4.24;76.91
5952;BME280;3001;42.622;23.194;2023-02-14T13:03:59;92293.81;;;4.30;76.94
5952;BME280;3001;42.622;23.194;2023-02-14T13:06:30;92290.50;;;4.34;77.85
5952;BME280;3001;42.622;23.194;2023-02-14T13:09:19;92305.28;;;4.44;76.74
5952;BME280;3001;42.622;23.194;2023-02-14T13:12:00;92297.97;;;4.36;75.75
5952;BME280;3001;42.622;23.194;2023-02-14T13:14:44;92289.72;;;4.34;77.01
5952;BME280;3001;42.622;23.194;2023-02-14T13:17:21;92300.38;;;4.42;77.12
5952;BME280;3001;42.622;23.194;2023-02-14T13:19:55;92296.53;;;4.45;77.20
5952;BME280;3001;42.622;23.194;2023-02-14T13:22:26;92293.44;;;4.43;77.86
5952;BME280;3001;42.622;23.194;2023-02-14T13:24:57;92293.75;;;4.46;77.56
5952;BME280;3001;42.622;23.194;2023-02-14T13:27:30;92282.66;;;4.46;77.54
5952;BME280;3001;42.622;23.194;2023-02-14T13:29:59;92286.41;;;4.38;75.80
5952;BME280;3001;42.622;23.194;2023-02-14T13:32:32;92278.63;;;4.50;75.41
5952;BME280;3001;42.622;23.194;2023-02-14T13:35:01;92281.28;;;4.17;76.69
5952;BME280;3001;42.622;23.194;2023-02-14T13:37:29;92285.06;;;4.31;78.04
5952;BME280;3001;42.622;23.194;2023-02-14T13:39:59;92283.63;;;4.40;77.89
5952;BME280;3001;42.622;23.194;2023-02-14T13:42:50;92290.38;;;4.24;78.69
5952;BME280;3001;42.622;23.194;2023-02-14T13:48:30;92286.13;;;4.56;77.41
5952;BME280;3001;42.622;23.194;2023-02-14T13:50:58;92288.16;;;4.76;76.70
5952;BME280;3001;42.622;23.194;2023-02-14T13:53:31;92286.53;;;4.70;75.58
5952;BME280;3001;42.622;23.194;2023-02-14T13:55:59;92282.50;;;4.74;75.29
5952;BME280;3001;42.622;23.194;2023-02-14T13:58:27;92283.16;;;4.64;76.62
5952;BME280;3001;42.622;23.194;2023-02-14T14:00:54;92272.88;;;4.64;76.48
5952;BME280;3001;42.622;23.194;2023-02-14T14:03:53;92286.47;;;4.86;75.85